Time;durP1;ratioP1;P1;durP2;ratioP2;P2;SDS_P1;SDS_P2;PMS_P1;PMS_P2;Temp;Humidity;BMP_temperature;BMP_pressure;BME280_temperature;BME280_humidity;BME280_pressure;Samples;Min_cycle;Max_cycle;Signal;HPM_P1;HPM_P2
2023/10/14 00:00:42;;;;;;;13.70;5.90;;;;;;;16.46;96.57;98331.49;108037;1300;22230;-46
2023/10/14 00:03:26;;;;;;;13.90;5.90;;;;;;;16.45;96.38;98328.78;108045;1285;22464;-49
2023/10/14 00:05:52;;;;;;;13.30;5.70;;;;;;;16.46;96.17;98322.10;108044;1285;22948;-51
2023/10/14 00:08:17;;;;;;;11.40;5.30;;;;;;;16.47;96.11;98319.50;108046;1307;22251;-53
2023/10/14 00:10:44;;;;;;;13.90;5.90;;;;;;;16.48;96.06;98316.61;108042;1301;22212;-49
2023/10/14 00:13:11;;;;;;;16.60;6.00;;;;;;;16.47;96.01;98317.95;108026;1289;22450;-49
2023/10/14 00:15:39;;;;;;;12.10;5.30;;;;;;;16.47;96.08;98308.06;108021;1287;22529;-51
2023/10/14 00:18:08;;;;;;;14.60;5.60;;;;;;;16.48;95.75;98304.08;108030;1285;22245;-52
2023/10/14 00:20:35;;;;;;;13.00;6.00;;;;;;;16.47;95.27;98302.39;107997;1288;22228;-51
2023/10/14 00:23:02;;;;;;;13.40;5.70;;;;;;;16.49;95.19;98300.77;108038;1288;22348;-46
2023/10/14 00:25:27;;;;;;;30.90;6.20;;;;;;;16.50;95.11;98297.45;108010;1307;22247;-50
2023/10/14 00:27:52;;;;;;;17.80;5.80;;;;;;;16.50;94.98;98293.37;108033;1301;22315;-51
2023/10/14 00:30:20;;;;;;;17.30;5.20;;;;;;;16.50;94.90;98289.86;108033;1288;22338;-46
2023/10/14 00:32:45;;;;;;;11.00;5.10;;;;;;;16.50;94.74;98288.48;108058;1288;22304;-47
2023/10/14 00:35:18;;;;;;;14.50;5.50;;;;;;;16.49;94.65;98285.73;108015;1288;22413;-49
2023/10/14 00:37:43;;;;;;;11.50;5.20;;;;;;;16.49;94.68;98282.73;108019;1288;22220;-48
2023/10/14 00:40:12;;;;;;;20.50;5.60;;;;;;;16.48;94.39;98282.27;108009;1285;22500;-53
2023/10/14 00:42:37;;;;;;;17.00;5.70;;;;;;;16.47;94.26;98280.77;108013;1307;22403;-47
2023/10/14 00:45:09;;;;;;;18.10;5.60;;;;;;;16.48;94.15;98277.52;108049;1287;22465;-46
2023/10/14 00:47:43;;;;;;;13.80;5.20;;;;;;;16.48;94.01;98276.42;108013;1298;22215;-51
2023/10/14 00:50:26;;;;;;;11.50;5.20;;;;;;;16.48;94.03;98274.89;108042;1291;22202;-45
2023/10/14 00:52:57;;;;;;;13.50;5.30;;;;;;;16.48;93.97;98275.16;108063;1307;22844;-47
2023/10/14 00:55:42;;;;;;;16.90;5.30;;;;;;;16.48;93.45;98274.36;108015;1285;22243;-49
2023/10/14 00:58:07;;;;;;;23.30;6.00;;;;;;;16.49;93.38;98267.28;108027;1293;22919;-44
2023/10/14 01:00:45;;;;;;;15.70;5.60;;;;;;;16.49;93.20;98264.70;108018;1288;22859;-49
2023/10/14 01:03:15;;;;;;;16.70;5.20;;;;;;;16.50;93.20;98259.46;108016;1288;22240;-51
2023/10/14 01:05:40;;;;;;;9.70;5.10;;;;;;;16.51;93.04;98253.52;108030;1288;22275;-49
2023/10/14 01:08:11;;;;;;;11.80;5.70;;;;;;;16.51;92.61;98251.08;108027;1288;22194;-49
2023/10/14 01:10:38;;;;;;;12.10;5.70;;;;;;;16.51;92.50;98244.29;108025;1288;22221;-48
2023/10/14 01:13:09;;;;;;;;;;;;;;;16.54;92.59;98239.47;108056;1291;22417;-50
2023/10/14 01:15:42;;;;;;;11.40;5.00;;;;;;;16.54;92.40;98235.22;108031;1307;22224;-50
2023/10/14 01:18:07;;;;;;;12.00;5.40;;;;;;;16.52;92.07;98233.08;108044;1288;23082;-51
2023/10/14 01:20:37;;;;;;;17.70;5.80;;;;;;;16.52;92.06;98231.16;108047;1295;22239;-47
2023/10/14 01:23:07;;;;;;;12.20;5.50;;;;;;;16.51;92.34;98227.20;108051;1301;22366;-47
2023/10/14 01:25:43;;;;;;;17.20;6.00;;;;;;;16.48;92.22;98226.02;108044;1288;22239;-50
2023/10/14 01:28:12;;;;;;;13.50;5.60;;;;;;;16.47;92.18;98219.59;108043;1288;22243;-48
2023/10/14 01:31:24;;;;;;;14.20;5.20;;;;;;;16.47;92.17;98218.70;108045;1285;22242;-49
2023/10/14 01:33:49;;;;;;;11.90;5.50;;;;;;;16.47;92.00;98213.25;108059;1288;22341;-48
2023/10/14 01:36:15;;;;;;;10.90;5.60;;;;;;;16.46;91.65;98210.32;108049;1285;22829;-52
2023/10/14 01:38:41;;;;;;;12.10;5.70;;;;;;;16.45;91.65;98208.09;108031;1287;22219;-49
2023/10/14 01:41:06;;;;;;;12.80;5.80;;;;;;;16.44;91.84;98195.31;108038;1288;22269;-49
2023/10/14 01:43:32;;;;;;;12.90;4.70;;;;;;;16.41;91.87;98185.13;108055;1285;22899;-48
2023/10/14 01:48:25;;;;;;;14.40;5.20;;;;;;;16.37;92.09;98181.84;108028;1307;22481;-52
2023/10/14 01:50:54;;;;;;;;;;;;;;;16.33;91.95;98173.20;108063;1285;22425;-47
2023/10/14 01:53:23;;;;;;;10.90;5.30;;;;;;;16.30;92.11;98173.13;108047;1303;22288;-49
2023/10/14 01:55:52;;;;;;;12.20;5.10;;;;;;;16.27;92.15;98167.96;108045;1307;22553;-46
2023/10/14 01:58:23;;;;;;;12.60;5.60;;;;;;;16.25;92.05;98163.75;108038;1291;22215;-51
2023/10/14 02:00:56;;;;;;;13.10;5.60;;;;;;;16.27;91.91;98162.68;108037;1307;22275;-48
2023/10/14 02:03:22;;;;;;;16.20;5.20;;;;;;;16.29;92.01;98159.59;108059;1284;22464;-48
2023/10/14 02:05:51;;;;;;;12.90;5.30;;;;;;;16.30;91.72;98156.36;108032;1288;22875;-50
2023/10/14 02:08:21;;;;;;;16.60;5.00;;;;;;;16.31;91.56;98151.45;108060;1288;22701;-47
2023/10/14 02:10:47;;;;;;;14.90;5.40;;;;;;;16.32;91.52;98157.34;108056;1307;22177;-47
2023/10/14 02:13:15;;;;;;;12.40;5.90;;;;;;;16.33;91.55;98152.14;108028;1288;22241;-44
2023/10/14 02:15:40;;;;;;;;;;;;;;;16.33;91.55;98146.64;107819;1307;22431;-52
2023/10/14 02:18:05;;;;;;;14.70;5.60;;;;;;;16.31;91.16;98141.88;108033;1307;23027;-46
2023/10/14 02:20:37;;;;;;;11.50;5.00;;;;;;;16.32;91.12;98142.91;108010;1307;22230;-52
2023/10/14 02:23:04;;;;;;;12.10;5.20;;;;;;;16.31;90.90;98136.23;108061;1285;22255;-51
2023/10/14 02:25:31;;;;;;;12.70;4.60;;;;;;;16.33;91.17;98134.14;108051;1288;22230;-49
2023/10/14 02:27:56;;;;;;;12.10;5.00;;;;;;;16.32;90.90;98131.01;108062;1306;22252;-48
2023/10/14 02:30:22;;;;;;;10.70;5.40;;;;;;;16.35;90.78;98132.19;108058;1289;22305;-49
2023/10/14 02:32:48;;;;;;;12.60;5.30;;;;;;;16.37;90.60;98128.46;108062;1295;22477;-51
2023/10/14 02:35:15;;;;;;;9.50;4.70;;;;;;;16.39;90.49;98126.83;108075;1306;22462;-52
2023/10/14 02:37:41;;;;;;;10.80;4.90;;;;;;;16.41;90.46;98123.56;108099;1306;22252;-49
2023/10/14 02:40:10;;;;;;;12.70;5.00;;;;;;;16.41;89.65;98117.73;108072;1306;22230;-53
2023/10/14 02:42:36;;;;;;;13.60;5.40;;;;;;;16.43;89.46;98110.69;108079;1286;22815;-52
2023/10/14 02:45:04;;;;;;;11.00;4.60;;;;;;;16.45;89.72;98104.77;108073;1289;22242;-50
2023/10/14 02:47:34;;;;;;;16.80;4.50;;;;;;;16.45;89.22;98095.92;108100;1282;22187;-48
2023/10/14 02:50:08;;;;;;;11.20;5.00;;;;;;;16.47;89.19;98091.03;108075;1288;23138;-51
2023/10/14 02:52:38;;;;;;;9.40;4.80;;;;;;;16.44;88.09;98085.63;108053;1306;22167;-51
2023/10/14 02:57:56;;;;;;;13.10;4.80;;;;;;;16.48;88.38;98094.35;107783;1306;22233;-49
2023/10/14 03:00:29;;;;;;;12.10;4.90;;;;;;;16.48;88.03;98093.36;108078;1306;22893;-47
2023/10/14 03:02:54;;;;;;;13.50;4.50;;;;;;;16.47;88.34;98090.98;108048;1306;22401;-53
2023/10/14 03:06:55;;;;;;;14.50;5.00;;;;;;;16.46;87.80;98075.89;106837;1304;549705;-50
2023/10/14 03:09:20;;;;;;;10.70;4.90;;;;;;;16.41;87.86;98077.63;107273;1291;22503;-52
2023/10/14 03:11:49;;;;;;;12.90;4.60;;;;;;;16.40;87.49;98085.13;107258;1313;23262;-46
2023/10/14 03:14:17;;;;;;;15.50;5.10;;;;;;;16.39;87.45;98084.38;107277;1313;23272;-53
2023/10/14 03:16:44;;;;;;;16.20;5.30;;;;;;;16.37;87.48;98077.16;107290;1297;22268;-49
2023/10/14 03:19:10;;;;;;;13.00;5.10;;;;;;;16.36;87.88;98070.89;107170;1311;139186;-47
2023/10/14 03:21:36;;;;;;;15.50;4.80;;;;;;;16.33;88.08;98064.63;107396;1304;22964;-45
2023/10/14 03:24:03;;;;;;;15.50;5.60;;;;;;;16.29;87.72;98062.34;107409;1287;22302;-45
2023/10/14 03:26:32;;;;;;;10.70;5.00;;;;;;;16.27;87.50;98062.58;107429;1289;21769;-47
2023/10/14 03:28:58;;;;;;;13.30;5.60;;;;;;;16.26;87.73;98058.95;107442;1293;22508;-49
2023/10/14 03:31:24;;;;;;;13.50;4.80;;;;;;;16.24;87.69;98058.27;107434;1292;22271;-45
2023/10/14 03:33:57;;;;;;;18.20;6.90;;;;;;;16.23;87.69;98058.90;107428;1288;22467;-48
2023/10/14 03:36:28;;;;;;;12.30;5.50;;;;;;;16.22;87.64;98048.73;107537;1292;22258;-50
2023/10/14 03:38:56;;;;;;;15.50;4.90;;;;;;;16.21;87.39;98045.13;107639;1310;22232;-49
2023/10/14 03:41:23;;;;;;;13.30;5.50;;;;;;;16.20;87.34;98040.55;107594;1288;22281;-46
2023/10/14 03:46:31;;;;;;;13.90;5.30;;;;;;;16.22;87.52;98024.00;107727;1306;22556;-49
2023/10/14 03:48:57;;;;;;;13.40;5.40;;;;;;;16.21;87.44;98019.78;107708;1309;22476;-49
2023/10/14 03:51:30;;;;;;;16.70;4.90;;;;;;;16.20;87.42;98014.98;107726;1288;22252;-51
2023/10/14 03:54:06;;;;;;;11.10;5.20;;;;;;;16.18;87.00;98013.55;107618;1291;22971;-51
2023/10/14 03:56:34;;;;;;;11.40;4.90;;;;;;;16.18;87.06;98012.30;107759;1306;22256;-48
2023/10/14 03:59:01;;;;;;;12.60;5.10;;;;;;;16.19;86.64;98007.23;107727;1288;22448;-50
2023/10/14 04:01:30;;;;;;;9.40;4.90;;;;;;;16.22;86.41;98002.05;107745;1290;22428;-48
2023/10/14 04:03:56;;;;;;;14.00;4.70;;;;;;;16.24;86.54;97998.27;107750;1290;23386;-44
2023/10/14 04:06:22;;;;;;;16.00;5.10;;;;;;;16.25;86.41;97998.44;107718;1291;23091;-46
2023/10/14 04:08:50;;;;;;;8.60;5.70;;;;;;;16.24;86.04;97995.67;107743;1287;22213;-49
2023/10/14 04:11:25;;;;;;;13.10;5.50;;;;;;;16.24;86.07;97997.99;107720;1302;22361;-52
2023/10/14 04:17:10;;;;;;;19.00;5.50;;;;;;;16.19;85.87;97985.38;107716;1308;22476;-49
2023/10/14 04:21:53;;;;;;;12.50;5.10;;;;;;;16.18;85.81;97973.96;107691;1304;22808;-47
2023/10/14 04:26:50;;;;;;;15.20;5.40;;;;;;;16.18;85.78;97958.72;107669;1301;22408;-44
2023/10/14 04:29:39;;;;;;;11.60;5.10;;;;;;;16.19;86.06;97964.20;107694;1289;22444;-46
2023/10/14 04:32:22;;;;;;;14.90;5.50;;;;;;;16.16;85.81;97958.11;107700;1293;22748;-50
2023/10/14 04:34:49;;;;;;;15.80;6.00;;;;;;;16.16;85.71;97949.45;107662;1301;23093;-48
2023/10/14 04:37:20;;;;;;;13.80;5.40;;;;;;;16.16;85.56;97946.27;107669;1286;23383;-48
2023/10/14 04:39:45;;;;;;;10.10;5.20;;;;;;;16.16;85.59;97944.09;107698;1287;22886;-44
2023/10/14 04:44:58;;;;;;;14.80;5.60;;;;;;;16.17;85.69;97932.16;107701;1309;22307;-44
2023/10/14 04:47:35;;;;;;;10.40;5.60;;;;;;;16.18;85.80;97935.45;107693;1289;22475;-47
2023/10/14 04:50:10;;;;;;;12.70;5.70;;;;;;;16.19;85.70;97936.71;107699;1286;22946;-45
2023/10/14 04:52:36;;;;;;;14.60;5.30;;;;;;;16.19;85.71;97929.65;107694;1289;22493;-46
2023/10/14 04:55:23;;;;;;;16.90;5.90;;;;;;;16.20;85.97;97929.59;107818;1302;22439;-49
2023/10/14 05:00:41;;;;;;;13.90;5.50;;;;;;;16.17;85.70;97931.69;107674;1308;22315;-51
2023/10/14 05:03:09;;;;;;;14.50;5.70;;;;;;;16.17;86.02;97934.61;107684;1297;23206;-44
2023/10/14 05:05:34;;;;;;;14.90;5.90;;;;;;;16.17;86.09;97941.77;107702;1289;22223;-42
2023/10/14 05:08:02;;;;;;;14.70;5.40;;;;;;;16.16;85.99;97939.50;107690;1287;22458;-49
2023/10/14 05:10:28;;;;;;;13.40;5.30;;;;;;;16.16;86.32;97933.14;107700;1286;22504;-49
2023/10/14 05:12:55;;;;;;;9.00;4.90;;;;;;;16.15;86.25;97929.55;107701;1309;23016;-47
2023/10/14 05:15:21;;;;;;;11.70;5.80;;;;;;;16.15;86.32;97929.55;107695;1289;22517;-52
2023/10/14 05:17:50;;;;;;;17.50;6.60;;;;;;;16.13;86.21;97928.15;107718;1309;22270;-46
2023/10/14 05:22:59;;;;;;;14.00;6.40;;;;;;;16.06;86.13;97932.67;107696;1309;22254;-49
2023/10/14 05:25:30;;;;;;;15.50;5.90;;;;;;;16.09;86.24;97934.89;107676;1291;22471;-50
2023/10/14 05:27:55;;;;;;;15.80;6.20;;;;;;;16.09;86.39;97933.47;107688;1290;22437;-48
2023/10/14 05:30:22;;;;;;;16.00;6.20;;;;;;;16.09;86.37;97933.62;107691;1291;22267;-49
2023/10/14 05:32:49;;;;;;;16.90;6.80;;;;;;;16.09;86.40;97936.08;107701;1309;22443;-47
2023/10/14 05:35:15;;;;;;;16.60;6.30;;;;;;;16.09;86.43;97938.92;107661;1290;22402;-48
2023/10/14 05:37:43;;;;;;;12.70;6.20;;;;;;;16.10;86.45;97942.91;107684;1309;22990;-49
2023/10/14 05:40:15;;;;;;;16.40;6.50;;;;;;;16.09;86.51;97949.14;107670;1294;22366;-51
2023/10/14 05:42:43;;;;;;;14.70;7.20;;;;;;;16.09;86.56;97951.46;107682;1291;22745;-48
2023/10/14 05:45:11;;;;;;;17.00;6.40;;;;;;;16.11;86.58;97948.66;107698;1309;22361;-51
2023/10/14 05:47:37;;;;;;;15.80;7.00;;;;;;;16.12;86.54;97949.45;107694;1291;22493;-49
2023/10/14 05:50:06;;;;;;;18.10;5.70;;;;;;;16.12;86.38;97949.63;107693;1309;22234;-48
2023/10/14 05:52:32;;;;;;;18.40;6.70;;;;;;;16.16;86.38;97951.75;107698;1291;22324;-46
2023/10/14 05:55:00;;;;;;;11.40;6.30;;;;;;;16.17;86.46;97954.06;107689;1286;22814;-48
2023/10/14 05:57:29;;;;;;;15.10;6.70;;;;;;;16.18;86.55;97954.71;107682;1291;22472;-44
2023/10/14 05:59:57;;;;;;;14.10;6.60;;;;;;;16.17;86.66;97955.00;107726;1287;22497;-48
2023/10/14 06:02:22;;;;;;;16.70;6.80;;;;;;;16.18;86.78;97960.84;107695;1287;22958;-49
2023/10/14 06:04:50;;;;;;;14.30;7.00;;;;;;;16.20;86.81;97964.23;107695;1309;22944;-46
2023/10/14 06:07:15;;;;;;;19.00;6.90;;;;;;;16.22;86.76;97965.79;107675;1306;22476;-48
2023/10/14 06:09:45;;;;;;;23.30;7.30;;;;;;;16.23;86.63;97963.17;107690;1288;22296;-50
2023/10/14 06:12:14;;;;;;;20.00;7.30;;;;;;;16.26;86.84;97960.45;107769;1302;22219;-51
2023/10/14 06:14:41;;;;;;;13.60;6.70;;;;;;;16.27;86.84;97955.04;107807;1308;22494;-48
2023/10/14 06:17:07;;;;;;;13.30;6.70;;;;;;;16.28;86.70;97954.54;107692;1288;22216;-48
2023/10/14 06:19:35;;;;;;;15.70;7.00;;;;;;;16.29;86.64;97952.15;107690;1292;22260;-44
2023/10/14 06:22:02;;;;;;;17.90;7.30;;;;;;;16.33;86.73;97960.60;107684;1294;22280;-47
2023/10/14 06:24:29;;;;;;;20.70;7.40;;;;;;;16.37;86.74;97954.20;107667;1303;23097;-54
